Shiotamaru No8 — JD3239 — position and weather

sailwx.info

Track history (hours):
 
Tides and Currents Weather Stations Pressure Air Temp Water Temp Dewpoint Dewpoint Depression Visibility Wind Speed Wind Dir Waves Ship Positions

Shiotamaru No8

Last reported at 2017-Dec-17 03:59 UTC. Time now 2017-Dec-17 04:17 UTC.
Position N 35°30' E 139°46'.

Length 65 m.

Type: Ship. MMSI: 431002897.

Date/timePositionNaut miles runAvg speedWind from/ knotsBaromVisibWave heightAir tempDewpointWater temp
2017-Dec-17 03:59N 35°30' E 139°46'0 0.0
2017-Dec-17 03:23N 35°30' E 139°46'0 0.0
2017-Dec-17 02:53N 35°30' E 139°46'0 0.0
2017-Dec-17 02:23N 35°30' E 139°46'0 0.0
2017-Dec-17 01:59N 35°30' E 139°46'0 0.0
2017-Dec-17 01:29N 35°30' E 139°46'0 0.0
2017-Dec-17 00:59N 35°30' E 139°46'0 0.0
2017-Dec-17 00:05N 35°30' E 139°46'0 0.0
2017-Dec-16 23:08N 35°30' E 139°46'1 3.9
2017-Dec-16 22:56N 35°30' E 139°47'3 1.4
2017-Dec-16 20:58N 35°30' E 139°50'0 0.0
2017-Dec-16 20:28N 35°30' E 139°50'0 0.0
2017-Dec-16 19:28N 35°30' E 139°50'0 0.0
2017-Dec-16 18:58N 35°30' E 139°50'0 0.0
2017-Dec-16 13:58N 35°30' E 139°50'0 0.0
2017-Dec-16 13:28N 35°30' E 139°50'0 0.0
2017-Dec-16 12:28N 35°30' E 139°50'8 0.9
2017-Dec-16 03:36N 35°31' E 140°00'1 2.5
2017-Dec-16 03:14N 35°30' E 139°59'510.2
2017-Dec-16 02:45N 35°30' E 139°53'310.6
2017-Dec-16 02:27N 35°30' E 139°49'4 9.1
2017-Dec-16 02:00N 35°30' E 139°44'0 0.0
2017-Dec-16 01:30N 35°30' E 139°44'0 0.0
2017-Dec-16 01:00N 35°30' E 139°44'0 0.0
2017-Dec-16 00:30N 35°30' E 139°44'0 0.0
2017-Dec-16 00:00N 35°30' E 139°44'0 0.0
2017-Dec-15 23:30N 35°30' E 139°44'0 0.0
2017-Dec-15 23:00N 35°30' E 139°44'1 2.0
2017-Dec-15 22:20N 35°30' E 139°46'0 0.0
2017-Dec-15 21:56N 35°30' E 139°46'0 0.0
2017-Dec-15 20:38N 35°30' E 139°46'0 0.0
2017-Dec-15 20:26N 35°30' E 139°46'0 0.0
2017-Dec-15 19:50N 35°30' E 139°46'0 0.0
2017-Dec-15 19:26N 35°30' E 139°46'0 0.0
2017-Dec-15 18:53N 35°30' E 139°46'0 0.0
2017-Dec-15 18:20N 35°30' E 139°46'0 0.0
2017-Dec-15 17:56N 35°30' E 139°46'0 0.0
2017-Dec-15 17:26N 35°30' E 139°46'0 0.0
2017-Dec-15 16:56N 35°30' E 139°46'0 0.0
2017-Dec-15 16:26N 35°30' E 139°46'0 0.0
2017-Dec-15 15:50N 35°30' E 139°46'0 0.0
2017-Dec-15 15:26N 35°30' E 139°46'0 0.0
2017-Dec-15 14:56N 35°30' E 139°46'0 0.0
2017-Dec-15 13:32N 35°30' E 139°46'0 0.0
2017-Dec-15 13:08N 35°30' E 139°46'0 0.0
2017-Dec-15 12:50N 35°30' E 139°46'0 0.0
2017-Dec-15 12:08N 35°30' E 139°46'0 0.0
2017-Dec-15 11:56N 35°30' E 139°46'0 0.0
2017-Dec-15 11:20N 35°30' E 139°46'0 0.0
2017-Dec-15 09:53N 35°30' E 139°46'0 0.0
2017-Dec-15 09:26N 35°30' E 139°46'0 0.0
2017-Dec-15 08:56N 35°30' E 139°46'0 0.0
2017-Dec-15 08:26N 35°30' E 139°46'0 0.0
2017-Dec-15 07:56N 35°30' E 139°46'0 0.0
2017-Dec-15 07:26N 35°30' E 139°46'0 0.0
2017-Dec-15 06:56N 35°30' E 139°46'0 0.0
2017-Dec-15 06:26N 35°30' E 139°46'0 0.0
2017-Dec-15 05:56N 35°30' E 139°46'0 0.0
2017-Dec-15 05:26N 35°30' E 139°46'0 0.0
2017-Dec-15 04:56N 35°30' E 139°46'0 0.0
2017-Dec-15 04:26N 35°30' E 139°46'2 3.5
2017-Dec-15 04:00N 35°30' E 139°44'1 0.8
2017-Dec-15 02:30N 35°29' E 139°42'0 0.0
2017-Dec-15 01:00N 35°29' E 139°43'1 2.8
2017-Dec-15 00:30N 35°30' E 139°44'5 0.9
2017-Dec-14 18:29N 35°25' E 139°47'611.8
2017-Dec-14 17:59N 35°20' E 139°44'611.5
2017-Dec-14 17:29N 35°14' E 139°47'611.7
2017-Dec-14 16:59N 35°08' E 139°46'1011.2
2017-Dec-14 16:07N 35°01' E 139°39'212.0
2017-Dec-14 15:59N 34°60' E 139°37'2312.6
2017-Dec-14 14:10N 34°46' E 139°14'313.0
2017-Dec-14 13:57N 34°45' E 139°12'612.5
2017-Dec-14 13:30N 34°41' E 139°06'11211.8
2017-Dec-14 04:01N 34°41' E 136°50'212.3
2017-Dec-14 03:53N 34°42' E 136°49'512.2
2017-Dec-14 03:30N 34°46' E 136°46'612.2
2017-Dec-14 03:00N 34°52' E 136°44'612.2
2017-Dec-14 02:30N 34°58' E 136°42'3 3.9
2017-Dec-14 01:49N 35°00' E 136°41'0 0.0
2017-Dec-14 01:25N 35°00' E 136°41'0 0.0
2017-Dec-13 23:40N 35°00' E 136°41'0 1.0
2017-Dec-13 23:30N 35°00' E 136°41'2 3.6
2017-Dec-13 22:59N 34°59' E 136°42'0 0.0
2017-Dec-13 22:29N 34°59' E 136°42'0 0.0
2017-Dec-13 21:59N 34°59' E 136°42'0 0.0
2017-Dec-13 21:23N 34°59' E 136°42'0 0.0
2017-Dec-13 20:59N 34°59' E 136°42'0 0.0
2017-Dec-13 20:29N 34°59' E 136°42'0 0.0
2017-Dec-13 19:59N 34°59' E 136°42'0 0.0
2017-Dec-13 19:29N 34°59' E 136°42'0 0.0
2017-Dec-13 18:59N 34°59' E 136°42'3 5.2
2017-Dec-13 18:28N 34°56' E 136°43'611.8
2017-Dec-13 17:59N 34°51' E 136°44'92 6.2
2017-Dec-13 03:01N 34°07' E 135°05'212.0
2017-Dec-13 02:50N 34°08' E 135°07'4 4.6
2017-Dec-13 01:55N 34°09' E 135°12'0 0.0
2017-Dec-13 01:25N 34°09' E 135°12'0 0.0
2017-Dec-13 00:49N 34°09' E 135°12'0 0.2
2017-Dec-12 23:19N 34°09' E 135°12'0 0.0
2017-Dec-12 22:49N 34°09' E 135°12'0 0.0
2017-Dec-12 22:19N 34°09' E 135°12'0 0.0
2017-Dec-12 21:58N 34°09' E 135°12'0 0.0
2017-Dec-12 21:25N 34°09' E 135°12'0 0.0
2017-Dec-12 20:49N 34°09' E 135°12'0 0.0
2017-Dec-12 19:55N 34°09' E 135°12'0 0.0
2017-Dec-12 18:52N 34°09' E 135°12'0 0.0
2017-Dec-12 18:28N 34°09' E 135°12'0 0.0
2017-Dec-12 16:22N 34°09' E 135°12'0 0.0
2017-Dec-12 15:52N 34°09' E 135°12'1 1.5
2017-Dec-12 15:29N 34°09' E 135°11'611.7
2017-Dec-12 15:00N 34°09' E 135°04'611.7
2017-Dec-12 14:28N 34°09' E 134°57'711.3
2017-Dec-12 13:53N 34°09' E 134°49'1312.6
2017-Dec-12 12:52N 34°16' E 134°36'9611.5
2017-Dec-12 04:28N 34°06' E 132°40'2010.7
2017-Dec-12 02:37N 34°10' E 132°17'211.8
2017-Dec-12 02:25N 34°11' E 132°15'1 1.1
2017-Dec-12 01:47N 34°12' E 132°14'0 0.0
2017-Dec-12 01:29N 34°12' E 132°14'0 0.0
2017-Dec-11 23:35N 34°12' E 132°14'0 0.3
2017-Dec-11 23:22N 34°12' E 132°14'1 1.3
2017-Dec-11 22:43N 34°12' E 132°15'0 0.0
2017-Dec-11 22:25N 34°12' E 132°15'0 0.0
2017-Dec-11 21:49N 34°12' E 132°15'0 0.0
2017-Dec-11 21:22N 34°12' E 132°15'0 0.0
2017-Dec-11 20:43N 34°11' E 132°15'0 0.0
2017-Dec-11 20:28N 34°11' E 132°15'0 0.0
2017-Dec-11 19:58N 34°11' E 132°15'0 0.1
2017-Dec-11 19:28N 34°11' E 132°15'0 0.0
2017-Dec-11 18:28N 34°11' E 132°15'0 0.0
2017-Dec-11 17:52N 34°11' E 132°15'0 0.0
2017-Dec-11 17:25N 34°11' E 132°15'1 1.5
2017-Dec-11 17:00N 34°11' E 132°16'1511.6
2017-Dec-11 15:43N 34°03' E 132°31'310.5
2017-Dec-11 15:24N 34°03' E 132°35'10110.6
2017-Dec-11 05:52N 34°29' E 134°33'411.5
2017-Dec-11 05:30N 34°30' E 134°37'611.4
2017-Dec-11 04:58N 34°32' E 134°44'612.3
2017-Dec-11 04:30N 34°35' E 134°51'612.8
2017-Dec-11 04:00N 34°37' E 134°58'611.4
2017-Dec-11 03:30N 34°36' E 135°04'611.5
2017-Dec-11 03:00N 34°34' E 135°11'611.3
2017-Dec-11 02:30N 34°32' E 135°17'5 9.0
2017-Dec-11 01:58N 34°29' E 135°22'0 0.6
2017-Dec-11 01:28N 34°29' E 135°22'0 0.0
2017-Dec-11 00:55N 34°29' E 135°22'0 0.0
2017-Dec-11 00:28N 34°29' E 135°22'0 0.0
2017-Dec-10 23:58N 34°29' E 135°22'0 0.0
2017-Dec-10 23:28N 34°29' E 135°22'2 5.3
2017-Dec-10 23:00N 34°29' E 135°19'611.7
2017-Dec-10 22:30N 34°28' E 135°12'611.4
2017-Dec-10 22:00N 34°27' E 135°05'611.3
2017-Dec-10 21:30N 34°26' E 134°59'4 0.1
2017-Dec-08 20:51N 34°22' E 134°57'3 7.3
2017-Dec-08 20:29N 34°20' E 134°58'4 9.2
2017-Dec-08 20:00N 34°15' E 134°59'710.2
2017-Dec-08 19:19N 34°08' E 135°00'95 6.2
2017-Dec-08 03:52N 34°48' E 136°46'410.1
2017-Dec-08 03:30N 34°51' E 136°45'611.6
2017-Dec-08 03:00N 34°57' E 136°47'611.6
2017-Dec-08 02:30N 35°02' E 136°51'2 4.6
2017-Dec-08 01:58N 35°04' E 136°52'0 0.0
2017-Dec-08 01:28N 35°04' E 136°52'0 0.0
2017-Dec-08 00:58N 35°04' E 136°52'0 0.0
2017-Dec-08 00:28N 35°04' E 136°52'0 0.0
2017-Dec-07 23:58N 35°04' E 136°52'0 0.2
2017-Dec-07 23:30N 35°04' E 136°52'510.8
2017-Dec-07 23:00N 34°59' E 136°49'611.5
2017-Dec-07 22:29N 34°53' E 136°47'611.9
2017-Dec-07 21:57N 34°47' E 136°49'140 9.8
2017-Dec-07 07:40N 35°06' E 139°37'212.6
2017-Dec-07 07:30N 35°07' E 139°40'612.0
2017-Dec-07 07:01N 35°11' E 139°45'510.3
2017-Dec-07 06:30N 35°16' E 139°45'511.0
2017-Dec-07 06:00N 35°21' E 139°42'611.4
2017-Dec-07 05:30N 35°27' E 139°42'4 7.0
2017-Dec-07 04:58N 35°30' E 139°44'0 0.0
2017-Dec-07 04:19N 35°30' E 139°44'  
Track history (hours):
 
Tides and Currents Weather Stations Pressure Air Temp Water Temp Dewpoint Dewpoint Depression Visibility Wind Speed Wind Dir Waves Ship Positions

Shiotamaru No8

Last reported at 2017-Dec-17 03:59 UTC. Time now 2017-Dec-17 04:17 UTC.
Position N 35°30' E 139°46'.

Length 65 m.

Type: Ship. MMSI: 431002897.

Date/timePositionNaut miles runAvg speedWind from/ knotsBaromVisibWave heightAir tempDewpointWater temp
2017-Dec-17 03:59N 35°30' E 139°46'0 0.0
2017-Dec-17 03:23N 35°30' E 139°46'0 0.0
2017-Dec-17 02:53N 35°30' E 139°46'0 0.0
2017-Dec-17 02:23N 35°30' E 139°46'0 0.0
2017-Dec-17 01:59N 35°30' E 139°46'0 0.0
2017-Dec-17 01:29N 35°30' E 139°46'0 0.0
2017-Dec-17 00:59N 35°30' E 139°46'0 0.0
2017-Dec-17 00:05N 35°30' E 139°46'0 0.0
2017-Dec-16 23:08N 35°30' E 139°46'1 3.9
2017-Dec-16 22:56N 35°30' E 139°47'3 1.4
2017-Dec-16 20:58N 35°30' E 139°50'0 0.0
2017-Dec-16 20:28N 35°30' E 139°50'0 0.0
2017-Dec-16 19:28N 35°30' E 139°50'0 0.0
2017-Dec-16 18:58N 35°30' E 139°50'0 0.0
2017-Dec-16 13:58N 35°30' E 139°50'0 0.0
2017-Dec-16 13:28N 35°30' E 139°50'0 0.0
2017-Dec-16 12:28N 35°30' E 139°50'8 0.9
2017-Dec-16 03:36N 35°31' E 140°00'1 2.5
2017-Dec-16 03:14N 35°30' E 139°59'510.2
2017-Dec-16 02:45N 35°30' E 139°53'310.6
2017-Dec-16 02:27N 35°30' E 139°49'4 9.1
2017-Dec-16 02:00N 35°30' E 139°44'0 0.0
2017-Dec-16 01:30N 35°30' E 139°44'0 0.0
2017-Dec-16 01:00N 35°30' E 139°44'0 0.0
2017-Dec-16 00:30N 35°30' E 139°44'0 0.0
2017-Dec-16 00:00N 35°30' E 139°44'0 0.0
2017-Dec-15 23:30N 35°30' E 139°44'0 0.0
2017-Dec-15 23:00N 35°30' E 139°44'1 2.0
2017-Dec-15 22:20N 35°30' E 139°46'0 0.0
2017-Dec-15 21:56N 35°30' E 139°46'0 0.0
2017-Dec-15 20:38N 35°30' E 139°46'0 0.0
2017-Dec-15 20:26N 35°30' E 139°46'0 0.0
2017-Dec-15 19:50N 35°30' E 139°46'0 0.0
2017-Dec-15 19:26N 35°30' E 139°46'0 0.0
2017-Dec-15 18:53N 35°30' E 139°46'0 0.0
2017-Dec-15 18:20N 35°30' E 139°46'0 0.0
2017-Dec-15 17:56N 35°30' E 139°46'0 0.0
2017-Dec-15 17:26N 35°30' E 139°46'0 0.0
2017-Dec-15 16:56N 35°30' E 139°46'0 0.0
2017-Dec-15 16:26N 35°30' E 139°46'0 0.0
2017-Dec-15 15:50N 35°30' E 139°46'0 0.0
2017-Dec-15 15:26N 35°30' E 139°46'0 0.0
2017-Dec-15 14:56N 35°30' E 139°46'0 0.0
2017-Dec-15 13:32N 35°30' E 139°46'0 0.0
2017-Dec-15 13:08N 35°30' E 139°46'0 0.0
2017-Dec-15 12:50N 35°30' E 139°46'0 0.0
2017-Dec-15 12:08N 35°30' E 139°46'0 0.0
2017-Dec-15 11:56N 35°30' E 139°46'0 0.0
2017-Dec-15 11:20N 35°30' E 139°46'0 0.0
2017-Dec-15 09:53N 35°30' E 139°46'0 0.0
2017-Dec-15 09:26N 35°30' E 139°46'0 0.0
2017-Dec-15 08:56N 35°30' E 139°46'0 0.0
2017-Dec-15 08:26N 35°30' E 139°46'0 0.0
2017-Dec-15 07:56N 35°30' E 139°46'0 0.0
2017-Dec-15 07:26N 35°30' E 139°46'0 0.0
2017-Dec-15 06:56N 35°30' E 139°46'0 0.0
2017-Dec-15 06:26N 35°30' E 139°46'0 0.0
2017-Dec-15 05:56N 35°30' E 139°46'0 0.0
2017-Dec-15 05:26N 35°30' E 139°46'0 0.0
2017-Dec-15 04:56N 35°30' E 139°46'0 0.0
2017-Dec-15 04:26N 35°30' E 139°46'2 3.5
2017-Dec-15 04:00N 35°30' E 139°44'1 0.8
2017-Dec-15 02:30N 35°29' E 139°42'0 0.0
2017-Dec-15 01:00N 35°29' E 139°43'1 2.8
2017-Dec-15 00:30N 35°30' E 139°44'5 0.9
2017-Dec-14 18:29N 35°25' E 139°47'611.8
2017-Dec-14 17:59N 35°20' E 139°44'611.5
2017-Dec-14 17:29N 35°14' E 139°47'611.7
2017-Dec-14 16:59N 35°08' E 139°46'1011.2
2017-Dec-14 16:07N 35°01' E 139°39'212.0
2017-Dec-14 15:59N 34°60' E 139°37'2312.6
2017-Dec-14 14:10N 34°46' E 139°14'313.0
2017-Dec-14 13:57N 34°45' E 139°12'612.5
2017-Dec-14 13:30N 34°41' E 139°06'11211.8
2017-Dec-14 04:01N 34°41' E 136°50'212.3
2017-Dec-14 03:53N 34°42' E 136°49'512.2
2017-Dec-14 03:30N 34°46' E 136°46'612.2
2017-Dec-14 03:00N 34°52' E 136°44'612.2
2017-Dec-14 02:30N 34°58' E 136°42'3 3.9
2017-Dec-14 01:49N 35°00' E 136°41'0 0.0
2017-Dec-14 01:25N 35°00' E 136°41'0 0.0
2017-Dec-13 23:40N 35°00' E 136°41'0 1.0
2017-Dec-13 23:30N 35°00' E 136°41'2 3.6
2017-Dec-13 22:59N 34°59' E 136°42'0 0.0
2017-Dec-13 22:29N 34°59' E 136°42'0 0.0
2017-Dec-13 21:59N 34°59' E 136°42'0 0.0
2017-Dec-13 21:23N 34°59' E 136°42'0 0.0
2017-Dec-13 20:59N 34°59' E 136°42'0 0.0
2017-Dec-13 20:29N 34°59' E 136°42'0 0.0
2017-Dec-13 19:59N 34°59' E 136°42'0 0.0
2017-Dec-13 19:29N 34°59' E 136°42'0 0.0
2017-Dec-13 18:59N 34°59' E 136°42'3 5.2
2017-Dec-13 18:28N 34°56' E 136°43'611.8
2017-Dec-13 17:59N 34°51' E 136°44'92 6.2
2017-Dec-13 03:01N 34°07' E 135°05'212.0
2017-Dec-13 02:50N 34°08' E 135°07'4 4.6
2017-Dec-13 01:55N 34°09' E 135°12'0 0.0
2017-Dec-13 01:25N 34°09' E 135°12'0 0.0
2017-Dec-13 00:49N 34°09' E 135°12'0 0.2
2017-Dec-12 23:19N 34°09' E 135°12'0 0.0
2017-Dec-12 22:49N 34°09' E 135°12'0 0.0
2017-Dec-12 22:19N 34°09' E 135°12'0 0.0
2017-Dec-12 21:58N 34°09' E 135°12'0 0.0
2017-Dec-12 21:25N 34°09' E 135°12'0 0.0
2017-Dec-12 20:49N 34°09' E 135°12'0 0.0
2017-Dec-12 19:55N 34°09' E 135°12'0 0.0
2017-Dec-12 18:52N 34°09' E 135°12'0 0.0
2017-Dec-12 18:28N 34°09' E 135°12'0 0.0
2017-Dec-12 16:22N 34°09' E 135°12'0 0.0
2017-Dec-12 15:52N 34°09' E 135°12'1 1.5
2017-Dec-12 15:29N 34°09' E 135°11'611.7
2017-Dec-12 15:00N 34°09' E 135°04'611.7
2017-Dec-12 14:28N 34°09' E 134°57'711.3
2017-Dec-12 13:53N 34°09' E 134°49'1312.6
2017-Dec-12 12:52N 34°16' E 134°36'9611.5
2017-Dec-12 04:28N 34°06' E 132°40'2010.7
2017-Dec-12 02:37N 34°10' E 132°17'211.8
2017-Dec-12 02:25N 34°11' E 132°15'1 1.1
2017-Dec-12 01:47N 34°12' E 132°14'0 0.0
2017-Dec-12 01:29N 34°12' E 132°14'0 0.0
2017-Dec-11 23:35N 34°12' E 132°14'0 0.3
2017-Dec-11 23:22N 34°12' E 132°14'1 1.3
2017-Dec-11 22:43N 34°12' E 132°15'0 0.0
2017-Dec-11 22:25N 34°12' E 132°15'0 0.0
2017-Dec-11 21:49N 34°12' E 132°15'0 0.0
2017-Dec-11 21:22N 34°12' E 132°15'0 0.0
2017-Dec-11 20:43N 34°11' E 132°15'0 0.0
2017-Dec-11 20:28N 34°11' E 132°15'0 0.0
2017-Dec-11 19:58N 34°11' E 132°15'0 0.1
2017-Dec-11 19:28N 34°11' E 132°15'0 0.0
2017-Dec-11 18:28N 34°11' E 132°15'0 0.0
2017-Dec-11 17:52N 34°11' E 132°15'0 0.0
2017-Dec-11 17:25N 34°11' E 132°15'1 1.5
2017-Dec-11 17:00N 34°11' E 132°16'1511.6
2017-Dec-11 15:43N 34°03' E 132°31'310.5
2017-Dec-11 15:24N 34°03' E 132°35'10110.6
2017-Dec-11 05:52N 34°29' E 134°33'411.5
2017-Dec-11 05:30N 34°30' E 134°37'611.4
2017-Dec-11 04:58N 34°32' E 134°44'612.3
2017-Dec-11 04:30N 34°35' E 134°51'612.8
2017-Dec-11 04:00N 34°37' E 134°58'611.4
2017-Dec-11 03:30N 34°36' E 135°04'611.5
2017-Dec-11 03:00N 34°34' E 135°11'611.3
2017-Dec-11 02:30N 34°32' E 135°17'5 9.0
2017-Dec-11 01:58N 34°29' E 135°22'0 0.6
2017-Dec-11 01:28N 34°29' E 135°22'0 0.0
2017-Dec-11 00:55N 34°29' E 135°22'0 0.0
2017-Dec-11 00:28N 34°29' E 135°22'0 0.0
2017-Dec-10 23:58N 34°29' E 135°22'0 0.0
2017-Dec-10 23:28N 34°29' E 135°22'2 5.3
2017-Dec-10 23:00N 34°29' E 135°19'611.7
2017-Dec-10 22:30N 34°28' E 135°12'611.4
2017-Dec-10 22:00N 34°27' E 135°05'611.3
2017-Dec-10 21:30N 34°26' E 134°59'4 0.1
2017-Dec-08 20:51N 34°22' E 134°57'3 7.3
2017-Dec-08 20:29N 34°20' E 134°58'4 9.2
2017-Dec-08 20:00N 34°15' E 134°59'710.2
2017-Dec-08 19:19N 34°08' E 135°00'95 6.2
2017-Dec-08 03:52N 34°48' E 136°46'410.1
2017-Dec-08 03:30N 34°51' E 136°45'611.6
2017-Dec-08 03:00N 34°57' E 136°47'611.6
2017-Dec-08 02:30N 35°02' E 136°51'2 4.6
2017-Dec-08 01:58N 35°04' E 136°52'0 0.0
2017-Dec-08 01:28N 35°04' E 136°52'0 0.0
2017-Dec-08 00:58N 35°04' E 136°52'0 0.0
2017-Dec-08 00:28N 35°04' E 136°52'0 0.0
2017-Dec-07 23:58N 35°04' E 136°52'0 0.2
2017-Dec-07 23:30N 35°04' E 136°52'510.8
2017-Dec-07 23:00N 34°59' E 136°49'611.5
2017-Dec-07 22:29N 34°53' E 136°47'611.9
2017-Dec-07 21:57N 34°47' E 136°49'140 9.8
2017-Dec-07 07:40N 35°06' E 139°37'212.6
2017-Dec-07 07:30N 35°07' E 139°40'612.0
2017-Dec-07 07:01N 35°11' E 139°45'510.3
2017-Dec-07 06:30N 35°16' E 139°45'511.0
2017-Dec-07 06:00N 35°21' E 139°42'611.4
2017-Dec-07 05:30N 35°27' E 139°42'4 7.0
2017-Dec-07 04:58N 35°30' E 139°44'0 0.0
2017-Dec-07 04:19N 35°30' E 139°44'  

Dump ship's entire track history